createdAt,value
2018-12-20T00:02:01.490Z,3.20
2018-12-20T00:04:34.872Z,3.20
2018-12-20T00:07:01.202Z,3.20
2018-12-20T00:09:27.516Z,3.20
2018-12-20T00:11:53.708Z,3.20
2018-12-20T00:14:20.087Z,3.20
2018-12-20T00:16:48.409Z,3.10
2018-12-20T00:19:14.653Z,3.20
2018-12-20T00:21:40.961Z,3.20
2018-12-20T00:24:07.171Z,3.20
2018-12-20T00:26:33.664Z,3.20
2018-12-20T00:28:59.891Z,3.20
2018-12-20T00:31:26.205Z,3.20
2018-12-20T00:33:52.373Z,3.20
2018-12-20T00:36:18.704Z,3.20
2018-12-20T00:38:45.047Z,3.20
2018-12-20T00:41:11.430Z,3.20
2018-12-20T00:43:37.790Z,3.30
2018-12-20T00:46:10.988Z,3.20
2018-12-20T00:48:37.283Z,3.30
2018-12-20T00:51:03.652Z,3.30
2018-12-20T00:53:29.846Z,3.30
2018-12-20T00:55:56.114Z,3.30
2018-12-20T00:58:29.195Z,3.30
2018-12-20T01:00:55.476Z,3.30
2018-12-20T01:03:21.791Z,3.30
2018-12-20T01:05:48.158Z,3.40
2018-12-20T01:08:14.653Z,3.40
2018-12-20T01:10:40.928Z,3.30
2018-12-20T01:13:07.160Z,3.30
2018-12-20T01:15:33.364Z,3.30
2018-12-20T01:17:59.590Z,3.30
2018-12-20T01:20:25.929Z,3.30
2018-12-20T01:22:52.212Z,3.30
2018-12-20T01:25:18.336Z,3.30
2018-12-20T01:27:44.634Z,3.40
2018-12-20T01:30:10.863Z,3.40
2018-12-20T01:32:37.214Z,3.40
2018-12-20T01:35:03.564Z,3.40
2018-12-20T01:37:29.768Z,3.40
2018-12-20T01:39:56.133Z,3.40
2018-12-20T01:42:22.293Z,3.40
2018-12-20T01:44:53.476Z,3.50
2018-12-20T01:47:16.974Z,3.40
2018-12-20T01:49:43.439Z,3.50
2018-12-20T01:52:09.742Z,3.50
2018-12-20T01:54:36.062Z,3.50
2018-12-20T01:57:02.469Z,3.50
2018-12-20T01:59:28.792Z,3.50
2018-12-20T02:01:54.982Z,3.50
2018-12-20T02:04:21.303Z,3.60
2018-12-20T02:06:47.784Z,3.50
2018-12-20T02:09:14.357Z,3.50
2018-12-20T02:11:40.653Z,3.50
2018-12-20T02:14:06.817Z,3.50
2018-12-20T02:16:33.124Z,3.50
2018-12-20T02:18:59.586Z,3.60
2018-12-20T02:21:25.968Z,3.60
2018-12-20T02:23:52.269Z,3.50
2018-12-20T02:26:18.594Z,3.50
2018-12-20T02:28:45.162Z,3.60
2018-12-20T02:31:11.433Z,3.60
2018-12-20T02:33:37.950Z,3.60
2018-12-20T02:36:04.311Z,3.60
2018-12-20T02:38:30.468Z,3.60
2018-12-20T02:40:56.783Z,3.60
2018-12-20T02:43:23.127Z,3.60
2018-12-20T02:45:49.237Z,3.60
2018-12-20T02:48:15.522Z,3.70
2018-12-20T02:50:41.902Z,3.70
2018-12-20T02:53:08.174Z,3.60
2018-12-20T02:55:34.472Z,3.60
2018-12-20T02:58:00.748Z,3.60
2018-12-20T03:00:26.995Z,3.60
2018-12-20T03:02:53.172Z,3.70
2018-12-20T03:05:19.441Z,3.70
2018-12-20T03:07:52.820Z,3.60
2018-12-20T03:10:19.142Z,3.70
2018-12-20T03:12:45.507Z,3.70
2018-12-20T03:15:19.705Z,3.60
2018-12-20T03:17:39.827Z,3.60
2018-12-20T03:20:13.530Z,3.60
2018-12-20T03:22:40.000Z,3.70
2018-12-20T03:25:07.849Z,3.70
2018-12-20T03:27:34.161Z,3.70
2018-12-20T03:30:07.391Z,3.70
2018-12-20T03:32:33.945Z,3.80
2018-12-20T03:35:00.347Z,3.80
2018-12-20T03:37:26.649Z,3.70
2018-12-20T03:39:52.964Z,3.70
2018-12-20T03:42:19.295Z,3.70
2018-12-20T03:44:45.662Z,3.70
2018-12-20T03:47:18.877Z,3.80
2018-12-20T03:49:45.239Z,3.80
2018-12-20T03:52:11.545Z,3.70
2018-12-20T03:54:37.818Z,3.70
2018-12-20T03:57:04.050Z,3.80
2018-12-20T03:59:37.358Z,3.80
2018-12-20T04:02:03.581Z,3.70
2018-12-20T04:04:29.922Z,3.80
2018-12-20T04:06:56.391Z,3.80
2018-12-20T04:09:22.712Z,3.80
2018-12-20T04:11:48.909Z,3.70
2018-12-20T04:14:15.052Z,3.70
2018-12-20T04:16:41.310Z,3.70
2018-12-20T04:19:07.518Z,3.70
2018-12-20T04:21:33.771Z,3.70
2018-12-20T04:24:00.352Z,3.80
2018-12-20T04:26:26.629Z,3.80
2018-12-20T04:28:52.950Z,3.70
2018-12-20T04:31:19.352Z,3.80
2018-12-20T04:33:45.674Z,3.70
2018-12-20T04:36:11.800Z,3.80
2018-12-20T04:38:38.063Z,3.80
2018-12-20T04:41:04.328Z,3.80
2018-12-20T04:43:30.459Z,3.80
2018-12-20T04:45:56.793Z,3.80
2018-12-20T04:48:23.050Z,3.80
2018-12-20T04:50:49.255Z,3.90
2018-12-20T04:53:15.463Z,3.90
2018-12-20T04:55:41.639Z,3.90
2018-12-20T04:58:08.418Z,3.90
2018-12-20T05:00:34.761Z,3.90
2018-12-20T05:03:01.151Z,3.90
2018-12-20T05:05:27.809Z,3.90
2018-12-20T05:07:54.218Z,3.90
2018-12-20T05:10:21.197Z,3.90
2018-12-20T05:12:47.963Z,4.00
2018-12-20T05:15:21.413Z,3.90
2018-12-20T05:17:47.980Z,3.90
2018-12-20T05:20:14.291Z,3.90
2018-12-20T05:22:40.856Z,4.00
2018-12-20T05:25:07.267Z,4.00
2018-12-20T05:27:33.431Z,4.00
2018-12-20T05:30:07.350Z,3.90
2018-12-20T05:32:33.629Z,4.00
2018-12-20T05:34:59.836Z,4.00
2018-12-20T05:37:26.047Z,4.00
2018-12-20T05:39:59.445Z,4.10
2018-12-20T05:42:25.984Z,4.10
2018-12-20T05:44:52.344Z,4.10
2018-12-20T05:47:18.812Z,4.10
2018-12-20T05:49:44.994Z,4.10
2018-12-20T05:52:11.191Z,4.10
2018-12-20T05:54:37.419Z,4.10
2018-12-20T05:57:04.638Z,4.10
2018-12-20T05:59:30.967Z,4.10
2018-12-20T06:01:57.260Z,4.20
2018-12-20T06:04:23.691Z,4.10
2018-12-20T06:06:50.168Z,4.10
2018-12-20T06:09:16.541Z,4.20
2018-12-20T06:11:42.756Z,4.10
2018-12-20T06:14:09.273Z,4.10
2018-12-20T06:16:35.533Z,4.10
2018-12-20T06:19:01.923Z,4.10
2018-12-20T06:21:28.099Z,4.10
2018-12-20T06:23:54.234Z,4.20
2018-12-20T06:26:20.436Z,4.20
2018-12-20T06:28:46.635Z,4.20
2018-12-20T06:31:12.786Z,4.20
2018-12-20T06:33:38.962Z,4.20
2018-12-20T06:36:05.158Z,4.10
2018-12-20T06:38:31.350Z,4.10
2018-12-20T06:40:57.470Z,4.10
2018-12-20T06:43:23.610Z,4.20
2018-12-20T06:45:49.778Z,4.10
2018-12-20T06:48:15.892Z,4.20
2018-12-20T06:50:42.046Z,4.20
2018-12-20T06:53:08.216Z,4.20
2018-12-20T06:55:34.533Z,4.30
2018-12-20T06:58:07.724Z,4.30
2018-12-20T07:00:40.992Z,4.30
2018-12-20T07:03:07.192Z,4.30
2018-12-20T07:05:40.382Z,4.30
2018-12-20T07:08:06.561Z,4.30
2018-12-20T07:10:32.734Z,4.30
2018-12-20T07:12:58.898Z,4.30
2018-12-20T07:15:25.029Z,4.30
2018-12-20T07:17:51.246Z,4.20
2018-12-20T07:20:17.477Z,4.30
2018-12-20T07:22:43.670Z,4.30
2018-12-20T07:25:09.800Z,4.30
2018-12-20T07:27:36.398Z,4.30
2018-12-20T07:30:05.917Z,4.30
2018-12-20T07:32:32.055Z,4.30
2018-12-20T07:34:58.357Z,4.20
2018-12-20T07:37:24.519Z,4.30
2018-12-20T07:39:50.660Z,4.30
2018-12-20T07:42:16.843Z,4.30
2018-12-20T07:44:42.992Z,4.30
2018-12-20T07:47:09.128Z,4.30
2018-12-20T07:49:35.280Z,4.30
2018-12-20T07:52:01.512Z,4.30
2018-12-20T07:54:27.674Z,4.40
2018-12-20T07:56:53.830Z,4.40
2018-12-20T07:59:23.618Z,4.40
2018-12-20T08:01:48.161Z,4.50
2018-12-20T08:04:14.334Z,4.40
2018-12-20T08:06:40.538Z,4.50
2018-12-20T08:09:13.770Z,4.50
2018-12-20T08:11:40.140Z,4.60
2018-12-20T08:14:06.304Z,4.60
2018-12-20T08:16:32.458Z,4.70
2018-12-20T08:18:58.789Z,4.70
2018-12-20T08:21:24.984Z,4.70
2018-12-20T08:23:51.308Z,4.70
2018-12-20T08:26:17.532Z,4.70
2018-12-20T08:28:43.733Z,4.70
2018-12-20T08:31:09.895Z,4.70
2018-12-20T08:33:36.044Z,4.70
2018-12-20T08:36:02.241Z,4.70
2018-12-20T08:38:28.453Z,4.80
2018-12-20T08:40:54.617Z,4.80
2018-12-20T08:43:20.833Z,4.80
2018-12-20T08:45:47.158Z,4.70
2018-12-20T08:48:13.355Z,4.70
2018-12-20T08:50:39.509Z,4.70
2018-12-20T08:53:05.632Z,4.70
2018-12-20T08:55:31.867Z,4.80
2018-12-20T08:57:58.092Z,4.70
2018-12-20T09:00:24.234Z,4.70
2018-12-20T09:02:50.391Z,4.60
2018-12-20T09:05:16.520Z,4.60
2018-12-20T09:07:42.793Z,4.60
2018-12-20T09:10:09.061Z,4.50
2018-12-20T09:12:42.253Z,4.40
2018-12-20T09:15:08.661Z,4.50
2018-12-20T09:17:34.868Z,4.50
2018-12-20T09:20:01.206Z,4.60
2018-12-20T09:22:27.351Z,4.60
2018-12-20T09:24:53.573Z,4.60
2018-12-20T09:27:19.790Z,4.60
2018-12-20T09:29:45.967Z,4.60
2018-12-20T09:32:12.111Z,4.60
2018-12-20T09:34:38.225Z,4.60
2018-12-20T09:37:04.350Z,4.70
2018-12-20T09:39:30.542Z,4.70
2018-12-20T09:41:56.702Z,4.70
2018-12-20T09:44:22.838Z,4.70
2018-12-20T09:46:51.148Z,4.70
2018-12-20T09:49:17.290Z,4.70
2018-12-20T09:51:43.616Z,4.70
2018-12-20T09:54:17.022Z,4.70
2018-12-20T09:56:43.173Z,4.70
2018-12-20T09:59:09.263Z,4.70
2018-12-20T10:01:35.391Z,4.70
2018-12-20T10:04:01.486Z,4.70
2018-12-20T10:06:27.640Z,4.70
2018-12-20T10:11:56.774Z,4.80
2018-12-20T10:14:22.951Z,4.90
2018-12-20T10:16:56.026Z,4.90
2018-12-20T10:19:22.212Z,5.00
2018-12-20T10:21:48.336Z,5.00
2018-12-20T10:24:14.451Z,5.10
2018-12-20T10:26:40.651Z,5.20
2018-12-20T10:29:07.756Z,5.20
2018-12-20T10:31:33.955Z,5.20
2018-12-20T10:34:00.129Z,5.20
2018-12-20T10:36:26.315Z,5.30
2018-12-20T10:38:52.489Z,5.30
2018-12-20T10:41:18.634Z,5.30
2018-12-20T10:43:44.770Z,5.40
2018-12-20T10:46:10.957Z,5.40
2018-12-20T10:48:37.125Z,5.50
2018-12-20T10:51:03.406Z,5.50
2018-12-20T10:53:36.533Z,5.60
2018-12-20T10:56:02.712Z,5.60
2018-12-20T10:58:29.061Z,5.60
2018-12-20T11:01:01.365Z,5.70
2018-12-20T11:03:33.743Z,5.80
2018-12-20T11:06:00.823Z,6.10
2018-12-20T11:08:28.786Z,7.00
2018-12-20T11:11:00.820Z,7.20
2018-12-20T11:13:27.552Z,6.80
2018-12-20T11:15:53.744Z,6.60
2018-12-20T11:18:19.858Z,6.50
2018-12-20T11:20:46.042Z,6.10
2018-12-20T11:23:12.208Z,6.00
2018-12-20T11:25:38.552Z,6.00
2018-12-20T11:28:04.677Z,6.00
2018-12-20T11:30:30.858Z,6.00
2018-12-20T11:32:57.018Z,6.00
2018-12-20T11:35:23.329Z,6.10
2018-12-20T11:37:49.442Z,6.00
2018-12-20T11:40:15.659Z,6.00
2018-12-20T11:42:41.794Z,6.00
2018-12-20T11:45:07.890Z,6.00
2018-12-20T11:47:33.997Z,6.00
2018-12-20T11:50:00.188Z,6.00
2018-12-20T11:52:26.362Z,6.10
2018-12-20T11:54:54.179Z,6.10
2018-12-20T11:57:20.650Z,6.30
2018-12-20T11:59:46.765Z,6.40
2018-12-20T12:02:12.946Z,6.70
2018-12-20T12:04:39.075Z,6.90
2018-12-20T12:07:05.277Z,7.20
2018-12-20T12:09:31.501Z,7.50
2018-12-20T12:11:57.650Z,7.70
2018-12-20T12:14:23.751Z,7.60
2018-12-20T12:16:49.965Z,7.40
2018-12-20T12:19:23.155Z,7.10
2018-12-20T12:21:49.565Z,7.00
2018-12-20T12:24:16.004Z,7.00
2018-12-20T12:26:42.172Z,6.90
2018-12-20T12:29:08.448Z,6.80
2018-12-20T12:31:34.685Z,6.80
2018-12-20T12:34:07.839Z,6.70
2018-12-20T12:36:33.976Z,6.70
2018-12-20T12:39:00.164Z,6.70
2018-12-20T12:41:26.266Z,6.70
2018-12-20T12:43:52.469Z,6.70
2018-12-20T12:46:18.607Z,6.60
2018-12-20T12:48:44.815Z,6.70
2018-12-20T12:51:11.047Z,6.70
2018-12-20T12:53:37.216Z,6.70
2018-12-20T12:56:03.522Z,6.70
2018-12-20T12:58:29.696Z,6.70
2018-12-20T13:00:55.802Z,6.70
2018-12-20T13:03:21.955Z,6.70
2018-12-20T13:05:48.112Z,6.80
2018-12-20T13:08:14.263Z,6.70
2018-12-20T13:10:40.554Z,6.70
2018-12-20T13:13:07.063Z,6.70
2018-12-20T13:15:33.214Z,6.70
2018-12-20T13:18:13.703Z,6.60
2018-12-20T13:20:34.685Z,6.60
2018-12-20T13:23:00.886Z,6.60
2018-12-20T13:25:27.942Z,6.60
2018-12-20T13:27:54.107Z,6.70
2018-12-20T13:30:20.428Z,6.60
2018-12-20T13:32:46.663Z,6.60
2018-12-20T13:35:13.254Z,6.50
2018-12-20T13:37:39.421Z,6.50
2018-12-20T13:40:06.219Z,6.50
2018-12-20T13:42:32.353Z,6.50
2018-12-20T13:44:58.555Z,6.40
2018-12-20T13:47:31.806Z,6.40
2018-12-20T13:49:58.022Z,6.40
2018-12-20T13:52:24.351Z,6.40
2018-12-20T13:54:50.512Z,6.40
2018-12-20T13:57:16.674Z,6.40
2018-12-20T13:59:42.963Z,6.40
2018-12-20T14:02:09.464Z,6.30
2018-12-20T14:04:35.581Z,6.30
2018-12-20T14:07:01.758Z,6.30
2018-12-20T14:09:27.911Z,6.20
2018-12-20T14:11:54.048Z,6.30
2018-12-20T14:14:20.181Z,6.20
2018-12-20T14:16:46.321Z,6.20
2018-12-20T14:19:12.521Z,6.30
2018-12-20T14:21:38.713Z,6.20
2018-12-20T14:24:04.916Z,6.20
2018-12-20T14:26:38.371Z,6.10
2018-12-20T14:29:04.553Z,6.10
2018-12-20T14:31:30.727Z,6.10
2018-12-20T14:33:56.949Z,6.10
2018-12-20T14:36:23.161Z,6.10
2018-12-20T14:38:49.340Z,6.10
2018-12-20T14:41:15.462Z,6.30
2018-12-20T14:43:41.618Z,6.00
2018-12-20T14:46:07.818Z,5.90
2018-12-20T14:48:39.208Z,5.80
2018-12-20T14:51:02.220Z,5.80
2018-12-20T14:53:28.416Z,5.80
2018-12-20T14:55:54.529Z,5.70
2018-12-20T14:58:20.619Z,5.70
2018-12-20T15:00:46.910Z,5.70
2018-12-20T15:03:13.033Z,5.70
2018-12-20T15:05:39.206Z,5.60
2018-12-20T15:08:05.384Z,5.60
2018-12-20T15:10:31.644Z,5.60
2018-12-20T15:12:57.885Z,5.60
2018-12-20T15:15:24.033Z,5.60
2018-12-20T15:17:50.437Z,5.60
2018-12-20T15:20:16.619Z,5.60
2018-12-20T15:22:42.778Z,5.60
2018-12-20T15:25:09.186Z,5.50
2018-12-20T15:27:35.357Z,5.50
2018-12-20T15:30:03.646Z,5.50
2018-12-20T15:32:29.865Z,5.50
2018-12-20T15:34:56.058Z,5.60
2018-12-20T15:37:22.499Z,5.50
2018-12-20T15:39:48.660Z,5.50
2018-12-20T15:42:14.850Z,5.50
2018-12-20T15:44:41.049Z,5.50
2018-12-20T15:47:07.234Z,5.50
2018-12-20T15:49:41.749Z,5.60
2018-12-20T15:52:01.654Z,5.60
2018-12-20T15:54:28.194Z,5.60
2018-12-20T15:56:54.390Z,5.60
2018-12-20T15:59:20.616Z,5.60
2018-12-20T16:01:46.759Z,5.60
2018-12-20T16:04:13.022Z,5.60
2018-12-20T16:06:39.183Z,5.60
2018-12-20T16:09:12.397Z,5.60
2018-12-20T16:11:38.524Z,5.50
2018-12-20T16:14:04.973Z,5.60
2018-12-20T16:16:31.278Z,5.60
2018-12-20T16:19:04.802Z,5.50
2018-12-20T16:21:26.295Z,5.60
2018-12-20T16:23:52.410Z,5.60
2018-12-20T16:26:18.509Z,5.50
2018-12-20T16:28:44.684Z,5.50
2018-12-20T16:31:10.895Z,5.60
2018-12-20T16:33:37.138Z,5.50
2018-12-20T16:36:03.398Z,5.60
2018-12-20T16:38:29.543Z,5.50
2018-12-20T16:40:55.761Z,5.60
2018-12-20T16:43:21.925Z,5.50
2018-12-20T16:45:48.094Z,5.60
2018-12-20T16:48:16.247Z,5.60
2018-12-20T16:50:42.341Z,5.50
2018-12-20T16:53:08.541Z,5.60
2018-12-20T16:55:35.040Z,5.60
2018-12-20T16:58:01.225Z,5.60
2018-12-20T17:00:27.377Z,5.60
2018-12-20T17:02:53.553Z,5.50
2018-12-20T17:05:19.710Z,5.50
2018-12-20T17:07:45.857Z,5.60
2018-12-20T17:10:12.030Z,5.60
2018-12-20T17:12:38.186Z,5.60
2018-12-20T17:15:04.913Z,5.60
2018-12-20T17:17:31.119Z,5.60
2018-12-20T17:19:57.288Z,5.60
2018-12-20T17:22:23.453Z,5.60
2018-12-20T17:24:49.561Z,5.60
2018-12-20T17:27:15.779Z,5.60
2018-12-20T17:29:41.939Z,5.60
2018-12-20T17:32:08.141Z,5.60
2018-12-20T17:34:34.319Z,5.60
2018-12-20T17:37:00.647Z,5.60
2018-12-20T17:39:26.831Z,5.70
2018-12-20T17:41:53.008Z,5.70
2018-12-20T17:44:19.209Z,5.70
2018-12-20T17:46:45.382Z,5.70
2018-12-20T17:49:11.531Z,5.70
2018-12-20T17:51:37.752Z,5.70
2018-12-20T17:54:03.900Z,5.60
2018-12-20T17:56:30.035Z,5.70
2018-12-20T17:58:56.184Z,5.70
2018-12-20T18:01:22.442Z,5.60
2018-12-20T18:03:48.616Z,5.70
2018-12-20T18:06:14.773Z,5.60
2018-12-20T18:08:40.961Z,5.50
2018-12-20T18:11:07.142Z,5.50
2018-12-20T18:13:33.363Z,5.50
2018-12-20T18:15:59.560Z,5.50
2018-12-20T18:18:25.736Z,5.50
2018-12-20T18:20:51.882Z,5.50
2018-12-20T18:23:18.052Z,5.50
2018-12-20T18:25:44.240Z,5.60
2018-12-20T18:28:10.378Z,5.60
2018-12-20T18:30:36.526Z,5.60
2018-12-20T18:33:02.760Z,5.60
2018-12-20T18:35:28.941Z,5.60
2018-12-20T18:37:55.210Z,5.60
2018-12-20T18:40:21.470Z,5.50
2018-12-20T18:42:47.702Z,5.60
2018-12-20T18:45:13.943Z,5.60
2018-12-20T18:47:40.261Z,5.60
2018-12-20T18:50:08.019Z,5.60
2018-12-20T18:52:41.182Z,5.60
2018-12-20T18:55:07.347Z,5.60
2018-12-20T18:57:33.537Z,5.60
2018-12-20T18:59:59.721Z,5.60
2018-12-20T19:02:25.885Z,5.70
2018-12-20T19:04:52.044Z,5.70
2018-12-20T19:07:25.259Z,5.60
2018-12-20T19:09:51.467Z,5.60
2018-12-20T19:12:17.635Z,5.70
2018-12-20T19:14:43.858Z,5.60
2018-12-20T19:17:10.119Z,5.60
2018-12-20T19:19:36.295Z,5.50
2018-12-20T19:22:02.632Z,5.60
2018-12-20T19:24:28.809Z,5.60
2018-12-20T19:26:54.997Z,5.60
2018-12-20T19:29:21.704Z,5.60
2018-12-20T19:31:47.900Z,5.60
2018-12-20T19:34:14.020Z,5.60
2018-12-20T19:36:40.216Z,5.50
2018-12-20T19:39:09.658Z,5.50
2018-12-20T19:41:36.221Z,5.40
2018-12-20T19:44:02.865Z,5.50
2018-12-20T19:46:29.033Z,5.40
2018-12-20T19:48:55.246Z,5.30
2018-12-20T19:51:21.476Z,5.30
2018-12-20T19:53:47.879Z,5.30
2018-12-20T19:56:13.977Z,5.40
2018-12-20T19:58:40.135Z,5.40
2018-12-20T20:01:06.471Z,5.30
2018-12-20T20:03:32.665Z,5.30
2018-12-20T20:05:58.913Z,5.40
2018-12-20T20:08:25.116Z,5.40
2018-12-20T20:10:51.309Z,5.40
2018-12-20T20:13:30.681Z,5.40
2018-12-20T20:15:52.474Z,5.40
2018-12-20T20:18:18.657Z,5.40
2018-12-20T20:20:44.846Z,5.40
2018-12-20T20:23:11.034Z,5.40
2018-12-20T20:25:37.252Z,5.40
2018-12-20T20:28:03.407Z,5.30
2018-12-20T20:30:29.512Z,5.40
2018-12-20T20:32:55.710Z,5.30
2018-12-20T20:35:21.919Z,5.40
2018-12-20T20:37:48.100Z,5.40
2018-12-20T20:40:14.291Z,5.40
2018-12-20T20:42:40.473Z,5.40
2018-12-20T20:45:06.954Z,5.40
2018-12-20T20:47:33.343Z,5.40
2018-12-20T20:49:59.517Z,5.40
2018-12-20T20:52:25.725Z,5.40
2018-12-20T20:54:51.936Z,5.50
2018-12-20T20:57:18.163Z,5.40
2018-12-20T20:59:50.779Z,5.40
2018-12-20T21:02:12.431Z,5.40
2018-12-20T21:04:38.594Z,5.40
2018-12-20T21:07:04.760Z,5.40
2018-12-20T21:09:30.874Z,5.30
2018-12-20T21:11:57.101Z,5.40
2018-12-20T21:14:23.411Z,5.30
2018-12-20T21:16:49.686Z,5.40
2018-12-20T21:19:15.921Z,5.30
2018-12-20T21:21:42.081Z,5.20
2018-12-20T21:24:08.271Z,5.20
2018-12-20T21:26:34.478Z,5.20
2018-12-20T21:29:00.664Z,5.20
2018-12-20T21:31:26.825Z,5.20
2018-12-20T21:33:53.002Z,5.20
2018-12-20T21:36:19.185Z,5.10
2018-12-20T21:38:45.349Z,5.10
2018-12-20T21:41:11.477Z,5.10
2018-12-20T21:43:37.594Z,5.10
2018-12-20T21:46:03.721Z,5.10
2018-12-20T21:48:29.921Z,5.10
2018-12-20T21:50:56.053Z,5.00
2018-12-20T21:53:22.155Z,5.10
2018-12-20T21:55:48.249Z,5.20
2018-12-20T21:58:14.435Z,5.10
2018-12-20T22:00:40.651Z,5.10
2018-12-20T22:03:06.831Z,5.10
2018-12-20T22:05:33.017Z,5.10
2018-12-20T22:07:59.171Z,5.10
2018-12-20T22:10:25.347Z,5.10
2018-12-20T22:12:51.520Z,5.10
2018-12-20T22:15:17.801Z,5.10
2018-12-20T22:17:43.965Z,5.10
2018-12-20T22:20:10.114Z,5.10
2018-12-20T22:22:36.281Z,5.10
2018-12-20T22:25:02.842Z,5.20
2018-12-20T22:27:28.940Z,5.10
2018-12-20T22:29:55.084Z,5.10
2018-12-20T22:32:21.266Z,5.10
2018-12-20T22:34:47.380Z,5.10
2018-12-20T22:37:13.592Z,5.10
2018-12-20T22:39:39.777Z,5.10
2018-12-20T22:42:05.965Z,5.10
2018-12-20T22:44:32.164Z,5.10
2018-12-20T22:46:58.316Z,5.10
2018-12-20T22:49:24.438Z,5.20
2018-12-20T22:51:50.612Z,5.20
2018-12-20T22:54:23.726Z,5.20
2018-12-20T22:56:49.888Z,5.10
2018-12-20T22:59:16.030Z,5.20
2018-12-20T23:01:42.451Z,5.10
2018-12-20T23:04:08.589Z,5.10
2018-12-20T23:06:34.706Z,5.10
2018-12-20T23:09:00.875Z,5.20
2018-12-20T23:11:27.043Z,5.20
2018-12-20T23:13:53.208Z,5.20
2018-12-20T23:16:19.358Z,5.30
2018-12-20T23:18:45.540Z,5.30
2018-12-20T23:21:11.703Z,5.30
2018-12-20T23:23:44.798Z,5.30
2018-12-20T23:26:11.090Z,5.40
2018-12-20T23:28:37.180Z,5.30
2018-12-20T23:31:03.374Z,5.30
2018-12-20T23:33:29.528Z,5.30
2018-12-20T23:35:55.739Z,5.30
2018-12-20T23:38:22.121Z,5.40
2018-12-20T23:40:48.349Z,5.40
2018-12-20T23:43:14.441Z,5.30
2018-12-20T23:45:40.692Z,5.40
2018-12-20T23:48:07.017Z,5.30
2018-12-20T23:50:33.195Z,5.30
2018-12-20T23:52:59.365Z,5.30
2018-12-20T23:55:25.563Z,5.30
2018-12-20T23:57:51.705Z,5.30
